Portland, Oregon
Current Conditions -  °F | °C
As of 1:53 AM on Wednesday 26 Nov 2014 (Local Time) from KPDX Reporting Station
Overcast Overcast  
Wind Chill: 57°   Ceiling: 5000
Heat Index: 57°   Visibility: 10mi
Dew Point: 54°   Wind: 6mph
Humidity: 89%   Direction: 180°S
Pressure: 30.27"   Gusts: NA
Location:  45.51°N, 122.67°W
Report Text: KPDX 260953Z 18005KT 10SM OVC050 14/12 A3027 RMK AO2 SLP250 T01390122
Loading
Personal Weather Stations






























Interactive Weather Map New forecast layout! Learn more

10-Day Weather Forecast

Advertisements
Track Severe Weather on mobile